createdAt,value
2018-09-08T00:01:17.178Z,19.3
2018-09-08T00:06:25.204Z,19.4
2018-09-08T00:11:33.352Z,19.4
2018-09-08T00:26:57.533Z,19.5
2018-09-08T00:32:05.589Z,19.6
2018-09-08T00:37:13.755Z,19.6
2018-09-08T00:42:21.804Z,19.6
2018-09-08T00:47:29.779Z,19.6
2018-09-08T00:52:37.856Z,19.6
2018-09-08T00:57:45.946Z,19.7
2018-09-08T01:02:53.899Z,19.6
2018-09-08T01:08:01.963Z,19.7
2018-09-08T01:13:10.031Z,19.8
2018-09-08T01:18:18.080Z,19.8
2018-09-08T01:23:26.249Z,19.7
2018-09-08T01:28:34.330Z,19.7
2018-09-08T01:33:42.297Z,19.7
2018-09-08T01:38:50.345Z,19.6
2018-09-08T01:43:58.637Z,19.6
2018-09-08T01:49:06.431Z,19.6
2018-09-08T01:54:14.460Z,19.6
2018-09-08T02:09:38.611Z,19.4
2018-09-08T02:14:46.668Z,19.3
2018-09-08T02:19:54.735Z,19.3
2018-09-08T02:25:02.784Z,19.3
2018-09-08T02:30:10.915Z,19.1
2018-09-08T02:35:18.949Z,19.1
2018-09-08T02:40:27.039Z,19
2018-09-08T02:45:35.127Z,19
2018-09-08T02:50:43.380Z,18.9
2018-09-08T02:55:51.327Z,18.9
2018-09-08T03:00:59.406Z,18.8
2018-09-08T03:06:07.547Z,18.7
2018-09-08T03:11:15.847Z,18.7
2018-09-08T03:16:23.837Z,18.7
2018-09-08T03:21:31.913Z,18.5
2018-09-08T03:26:40.048Z,18.4
2018-09-08T03:31:48.195Z,18.2
2018-09-08T03:36:56.285Z,18.2
2018-09-08T03:47:12.647Z,18
2018-09-08T03:52:20.795Z,18
2018-09-08T04:02:37.353Z,17.7
2018-09-08T04:07:45.168Z,17.6
2018-09-08T04:12:53.350Z,17.5
2018-09-08T04:18:01.600Z,17.5
2018-09-08T04:23:09.718Z,17.5
2018-09-08T04:28:18.067Z,17.3
2018-09-08T04:38:34.409Z,17.3
2018-09-08T04:48:50.720Z,17.2
2018-09-08T04:59:07.640Z,17.2
2018-09-08T05:04:15.380Z,17.2
2018-09-08T05:09:23.480Z,17.3
2018-09-08T05:14:32.006Z,17.3
2018-09-08T05:19:39.900Z,17.3
2018-09-08T05:29:56.412Z,17.5
2018-09-08T05:35:04.539Z,17.7
2018-09-08T05:40:14.359Z,18
2018-09-08T05:45:20.852Z,18.3
2018-09-08T05:50:29.014Z,18.6
2018-09-08T06:00:45.253Z,19.3
2018-09-08T06:05:53.428Z,19.9
2018-09-08T06:11:01.406Z,20.5
2018-09-08T06:16:09.385Z,21.1
2018-09-08T06:21:17.367Z,21.8
2018-09-08T06:26:25.222Z,22.6
2018-09-08T06:31:33.270Z,23.4
2018-09-08T06:36:40.843Z,24.4
2018-09-08T06:41:48.584Z,25.1
2018-09-08T06:46:56.366Z,25.9
2018-09-08T06:52:03.960Z,26.7
2018-09-08T07:02:19.259Z,28.1
2018-09-08T07:17:41.513Z,30
2018-09-08T07:22:48.887Z,30.6
2018-09-08T07:27:56.229Z,31.2
2018-09-08T07:33:03.546Z,31.4
2018-09-08T07:38:10.819Z,31.5
2018-09-08T07:43:18.089Z,31.7
2018-09-08T07:48:25.376Z,32
2018-09-08T07:53:32.628Z,32
2018-09-08T07:58:39.880Z,32.5
2018-09-08T08:03:47.203Z,32.9
2018-09-08T08:08:54.356Z,33.3
2018-09-08T08:14:01.491Z,33.9
2018-09-08T08:24:15.744Z,35.2
2018-09-08T08:29:22.876Z,35.8
2018-09-08T08:34:30.180Z,36.7
2018-09-08T08:44:43.778Z,37.3
2018-09-08T08:49:50.721Z,37.8
2018-09-08T08:54:57.630Z,38.1
2018-09-08T09:00:04.513Z,38.5
2018-09-08T09:05:11.411Z,38.8
2018-09-08T09:10:18.755Z,39
2018-09-08T09:20:31.892Z,39.5
2018-09-08T09:25:38.687Z,39.6
2018-09-08T09:30:45.571Z,39.9
2018-09-08T09:35:52.367Z,39.9
2018-09-08T09:40:59.033Z,39.8
2018-09-08T09:46:05.835Z,39.6
2018-09-08T09:56:19.398Z,39.2
2018-09-08T10:01:26.279Z,39.2
2018-09-08T10:06:32.995Z,39
2018-09-08T10:11:39.802Z,38.9
2018-09-08T10:16:46.692Z,38.6
2018-09-08T10:21:53.668Z,38.5
2018-09-08T10:27:00.266Z,38.2
2018-09-08T10:37:14.042Z,37
2018-09-08T10:42:20.937Z,36.6
2018-09-08T10:47:27.842Z,36.3
2018-09-08T11:02:48.900Z,34.9
2018-09-08T11:07:55.882Z,34.8
2018-09-08T11:13:02.962Z,34.5
2018-09-08T11:18:10.101Z,34.4
2018-09-08T11:28:24.355Z,33.8
2018-09-08T11:33:32.692Z,34.1
2018-09-08T11:43:45.789Z,35
2018-09-08T11:48:53.429Z,35.4
2018-09-08T11:53:59.813Z,35.1
2018-09-08T11:59:06.894Z,35
2018-09-08T12:04:14.000Z,34.8
2018-09-08T12:09:21.163Z,34.3
2018-09-08T12:19:35.378Z,33.6
2018-09-08T12:24:42.531Z,33.4
2018-09-08T12:29:49.770Z,33.1
2018-09-08T12:34:56.890Z,33
2018-09-08T12:40:04.064Z,33.2
2018-09-08T12:50:18.553Z,33.4
2018-09-08T12:55:25.668Z,33.7
2018-09-08T13:00:32.780Z,34.2
2018-09-08T13:05:39.960Z,34.3
2018-09-08T13:10:47.293Z,34.2
2018-09-08T13:15:54.267Z,34.4
2018-09-08T13:21:01.346Z,34.5
2018-09-08T13:26:08.549Z,34.7
2018-09-08T13:31:15.616Z,34.4
2018-09-08T13:36:22.676Z,34.2
2018-09-08T13:46:37.041Z,33.5
2018-09-08T13:51:44.158Z,33.2
2018-09-08T14:01:58.525Z,32.8
2018-09-08T14:07:05.749Z,32.8
2018-09-08T14:12:12.992Z,32.7
2018-09-08T14:17:20.171Z,32.5
2018-09-08T14:22:27.457Z,32.3
2018-09-08T14:27:35.800Z,32.2
2018-09-08T14:32:41.982Z,32.2
2018-09-08T14:37:49.069Z,32
2018-09-08T14:42:56.314Z,31.8
2018-09-08T14:53:10.869Z,31.6
2018-09-08T14:58:18.318Z,31.5
2018-09-08T15:03:25.477Z,31.4
2018-09-08T15:08:32.801Z,31.3
2018-09-08T15:18:47.562Z,31.3
2018-09-08T15:23:54.762Z,31.1
2018-09-08T15:29:02.032Z,31
2018-09-08T15:34:10.687Z,30.9
2018-09-08T15:44:24.032Z,30.6
2018-09-08T15:49:31.413Z,30.3
2018-09-08T15:54:38.788Z,30.2
2018-09-08T15:59:46.293Z,30.1
2018-09-08T16:04:53.605Z,30
2018-09-08T16:10:01.292Z,29.8
2018-09-08T16:15:08.453Z,29.7
2018-09-08T16:20:19.000Z,29.6
2018-09-08T16:25:23.333Z,29.5
2018-09-08T16:30:30.755Z,29.4
2018-09-08T16:35:38.206Z,29.4
2018-09-08T16:40:45.875Z,29.2
2018-09-08T16:45:53.116Z,29.2
2018-09-08T16:51:00.568Z,29.1
2018-09-08T16:56:08.100Z,29
2018-09-08T17:01:15.637Z,29
2018-09-08T17:11:30.441Z,28.7
2018-09-08T17:16:37.910Z,28.7
2018-09-08T17:26:52.875Z,28.5
2018-09-08T17:32:00.358Z,28.4
2018-09-08T17:37:07.848Z,28.4
2018-09-08T17:42:15.560Z,28.4
2018-09-08T17:47:22.848Z,28.4
2018-09-08T17:52:30.377Z,28.4
2018-09-08T17:57:37.994Z,28.3
2018-09-08T18:02:45.405Z,28.1
2018-09-08T18:07:52.992Z,28.1
2018-09-08T18:13:00.420Z,27.9
2018-09-08T18:18:07.939Z,27.8
2018-09-08T18:23:15.459Z,27.8
2018-09-08T18:28:23.006Z,27.7
2018-09-08T18:33:30.597Z,27.6
2018-09-08T18:38:38.059Z,27.4
2018-09-08T18:43:45.641Z,27.4
2018-09-08T18:48:53.462Z,27.2
2018-09-08T18:54:00.796Z,27.1
2018-09-08T18:59:08.360Z,26.9
2018-09-08T19:09:23.565Z,26.6
2018-09-08T19:19:38.818Z,26.3
2018-09-08T19:24:46.409Z,26.3
2018-09-08T19:29:54.044Z,26.2
2018-09-08T19:35:01.713Z,26
2018-09-08T19:40:09.728Z,26
2018-09-08T19:45:16.990Z,25.9
2018-09-08T19:50:24.648Z,25.8
2018-09-08T20:00:40.557Z,25.6
2018-09-08T20:05:47.600Z,25.5
2018-09-08T20:10:55.236Z,25.4
2018-09-08T20:16:02.940Z,25.4
2018-09-08T20:21:10.694Z,25.3
2018-09-08T20:26:18.303Z,25.3
2018-09-08T20:31:26.029Z,25.1
2018-09-08T20:36:33.690Z,25
2018-09-08T20:41:41.382Z,25
2018-09-08T20:51:56.837Z,24.9
2018-09-08T20:57:04.561Z,24.8
2018-09-08T21:02:12.355Z,24.7
2018-09-08T21:07:19.986Z,24.7
2018-09-08T21:17:35.458Z,24.5
2018-09-08T21:22:43.201Z,24.6
2018-09-08T21:27:51.021Z,24.6
2018-09-08T21:32:59.069Z,24.6
2018-09-08T21:38:06.423Z,24.6
2018-09-08T21:43:14.168Z,24.6
2018-09-08T21:48:21.920Z,24.5
2018-09-08T21:53:29.668Z,24.5
2018-09-08T21:58:37.369Z,24.5
2018-09-08T22:03:45.094Z,24.5
2018-09-08T22:08:52.902Z,24.4
2018-09-08T22:14:01.033Z,24.5
2018-09-08T22:24:16.074Z,24.4
2018-09-08T22:34:31.587Z,24.4
2018-09-08T22:39:39.385Z,24.4
2018-09-08T22:44:47.081Z,24.3
2018-09-08T22:49:54.834Z,24.3
2018-09-08T22:55:02.617Z,24.3
2018-09-08T23:00:10.372Z,24.2
2018-09-08T23:05:18.151Z,24.3
2018-09-08T23:10:25.903Z,24.2
2018-09-08T23:15:33.664Z,24.2
2018-09-08T23:20:41.467Z,24.1
2018-09-08T23:25:49.193Z,24.2
2018-09-08T23:30:56.947Z,24
2018-09-08T23:36:04.718Z,24
2018-09-08T23:41:12.533Z,23.9
2018-09-08T23:46:20.305Z,23.9
2018-09-08T23:51:28.074Z,23.8
2018-09-08T23:56:35.815Z,23.8
